Time;durP1;ratioP1;P1;durP2;ratioP2;P2;SDS_P1;SDS_P2;PMS_P1;PMS_P2;Temp;Humidity;BMP_temperature;BMP_pressure;BME280_temperature;BME280_humidity;BME280_pressure;Samples;Min_cycle;Max_cycle;Signal;HPM_P1;HPM_P2
2022/06/21 00:00:23;;;;;;;3.67;1.98;;;;;;;19.49;45.25;93553.53;4985953;28;20021;-77
2022/06/21 00:03:05;;;;;;;2.30;2.10;;;;;;;19.51;45.01;93545.81;4989131;28;20037;-74
2022/06/21 00:05:34;;;;;;;4.93;2.33;;;;;;;19.46;44.99;93543.47;4988221;28;20034;-76
2022/06/21 00:08:05;;;;;;;2.58;1.98;;;;;;;19.45;45.29;93547.34;4987988;28;20115;-76
2022/06/21 00:10:39;;;;;;;2.75;2.30;;;;;;;19.40;45.37;93544.97;4986218;28;20263;-77
2022/06/21 00:13:16;;;;;;;2.60;2.20;;;;;;;19.41;45.38;93551.88;4992237;28;20040;-76
2022/06/21 00:15:43;;;;;;;2.92;2.25;;;;;;;19.41;45.48;93546.50;5001985;28;20544;-76
2022/06/21 00:18:12;;;;;;;2.97;2.28;;;;;;;19.35;45.37;93531.06;4986171;28;20117;-75
2022/06/21 00:20:37;;;;;;;2.33;2.13;;;;;;;18.96;46.08;93477.63;4987704;28;20460;-75
2022/06/21 00:23:03;;;;;;;2.58;2.20;;;;;;;19.18;46.21;93522.44;4987310;28;20149;-77
2022/06/21 00:25:28;;;;;;;2.30;2.05;;;;;;;19.23;46.55;93546.38;4987848;28;20042;-76
2022/06/21 00:27:55;;;;;;;5.38;2.30;;;;;;;19.29;46.39;93549.50;4991858;28;20054;-76
2022/06/21 00:30:22;;;;;;;2.50;2.08;;;;;;;19.24;46.42;93547.16;4987229;28;20022;-76
2022/06/21 00:32:49;;;;;;;2.60;2.38;;;;;;;19.25;46.67;93544.09;4988583;28;20370;-76
2022/06/21 00:35:18;;;;;;;2.65;2.38;;;;;;;18.93;46.49;93515.31;5001846;28;20038;-76
2022/06/21 00:37:44;;;;;;;4.68;2.75;;;;;;;18.97;46.84;93514.19;4999135;28;20388;-76
2022/06/21 00:40:30;;;;;;;3.03;2.55;;;;;;;19.14;46.37;93537.06;4987742;28;20495;-75
2022/06/21 00:43:05;;;;;;;6.53;2.83;;;;;;;18.96;46.64;93509.19;4985029;28;20743;-76
2022/06/21 00:45:35;;;;;;;2.22;2.03;;;;;;;19.06;46.64;93535.47;4985228;28;20080;-75
2022/06/21 00:48:19;;;;;;;3.15;2.38;;;;;;;19.10;46.53;93542.44;4989078;28;20303;-76
2022/06/21 00:50:48;;;;;;;4.18;2.60;;;;;;;19.01;47.00;93551.97;4987721;28;20041;-75
2022/06/21 00:53:30;;;;;;;3.00;2.25;;;;;;;19.04;46.96;93543.13;4987044;28;20038;-75
2022/06/21 00:56:21;;;;;;;3.47;2.60;;;;;;;19.02;46.88;93542.75;4986636;28;20042;-76
2022/06/21 00:58:47;;;;;;;3.17;2.88;;;;;;;18.79;47.32;93505.97;4984349;28;20125;-76
2022/06/21 01:01:13;;;;;;;5.03;2.67;;;;;;;18.96;47.30;93531.53;4987204;28;20622;-77
2022/06/21 01:03:42;;;;;;;2.78;2.50;;;;;;;18.93;47.13;93536.88;4985189;28;20049;-75
2022/06/21 01:06:18;;;;;;;3.38;3.08;;;;;;;18.70;47.17;93497.44;4992337;28;20023;-76
2022/06/21 01:08:58;;;;;;;3.40;3.10;;;;;;;18.86;47.22;93524.91;4986524;28;20027;-76
2022/06/21 01:11:30;;;;;;;2.90;2.40;;;;;;;18.89;47.15;93526.84;4993242;28;20040;-75
2022/06/21 01:13:59;;;;;;;2.70;2.50;;;;;;;18.84;47.35;93529.09;4984387;28;20502;-75
2022/06/21 01:16:27;;;;;;;2.50;2.30;;;;;;;18.78;47.07;93515.19;4986409;28;20034;-76
2022/06/21 01:18:52;;;;;;;3.15;2.45;;;;;;;18.88;46.90;93525.28;4984999;28;20030;-75
2022/06/21 01:21:20;;;;;;;3.45;2.72;;;;;;;18.93;47.04;93531.47;4985277;28;20026;-75
2022/06/21 01:23:56;;;;;;;3.95;2.92;;;;;;;18.81;47.21;93530.63;4984812;28;20167;-76
2022/06/21 01:26:39;;;;;;;3.53;3.05;;;;;;;18.92;47.26;93544.16;4987734;28;20045;-76
2022/06/21 01:29:09;;;;;;;5.47;2.95;;;;;;;18.83;47.46;93538.31;4988913;28;20034;-77
2022/06/21 01:31:35;;;;;;;4.28;2.70;;;;;;;18.84;47.65;93534.50;4986495;28;20480;-76
2022/06/21 01:34:00;;;;;;;5.03;3.00;;;;;;;18.42;47.73;93483.66;4984132;28;20042;-75
2022/06/21 01:36:31;;;;;;;3.25;2.70;;;;;;;18.64;47.90;93520.41;4990284;28;20034;-76
2022/06/21 01:39:00;;;;;;;3.17;2.88;;;;;;;18.77;47.76;93540.56;4991879;28;20139;-76
2022/06/21 01:42:14;;;;;;;3.83;3.05;;;;;;;18.83;47.70;93544.50;5004434;28;20091;-76
2022/06/21 01:44:45;;;;;;;5.30;3.53;;;;;;;18.54;47.70;93504.94;4955734;28;20051;-75
2022/06/21 01:47:15;;;;;;;3.42;3.00;;;;;;;18.77;47.75;93535.19;4953686;28;20067;-76
2022/06/21 01:49:55;;;;;;;6.30;3.35;;;;;;;18.74;47.70;93535.94;4976584;28;20157;-75
2022/06/21 01:52:24;;;;;;;4.63;2.97;;;;;;;18.70;47.80;93540.53;4991088;28;20108;-75
2022/06/21 01:54:59;;;;;;;3.00;2.67;;;;;;;18.64;47.89;93531.19;4991272;28;20113;-76
2022/06/21 01:57:26;;;;;;;3.35;3.05;;;;;;;18.62;48.30;93543.50;4988083;28;20411;-76
2022/06/21 01:59:52;;;;;;;3.80;3.05;;;;;;;18.61;48.19;93539.25;4993001;28;20470;-76
2022/06/21 02:02:34;;;;;;;4.53;2.60;;;;;;;18.68;48.20;93547.38;4989385;28;20246;-76
2022/06/21 02:05:37;;;;;;;4.53;3.30;;;;;;;18.58;48.05;93538.06;4993465;28;20056;-76
2022/06/21 02:08:10;;;;;;;2.83;2.45;;;;;;;18.52;48.06;93534.16;4975383;28;20600;-76
2022/06/21 02:10:41;;;;;;;3.47;3.17;;;;;;;18.20;48.11;93489.97;5005646;28;20513;-76
2022/06/21 02:13:25;;;;;;;4.15;2.67;;;;;;;18.54;48.51;93542.63;4990388;28;20042;-76
2022/06/21 02:16:07;;;;;;;4.28;2.88;;;;;;;18.49;48.54;93540.28;4991709;28;20038;-75
2022/06/21 02:18:37;;;;;;;3.55;3.05;;;;;;;18.32;48.77;93530.88;4991105;28;20034;-76
2022/06/21 02:21:15;;;;;;;3.63;2.92;;;;;;;18.38;48.73;93550.19;4992510;28;20057;-76
2022/06/21 02:23:40;;;;;;;3.72;3.28;;;;;;;18.14;48.74;93510.28;4991221;28;20069;-76
2022/06/21 02:26:08;;;;;;;3.45;2.78;;;;;;;18.24;48.79;93501.53;4991235;28;20455;-77
2022/06/21 02:28:34;;;;;;;5.15;3.42;;;;;;;18.23;48.82;93516.94;4989270;28;20038;-76
2022/06/21 02:31:00;;;;;;;4.93;3.20;;;;;;;18.27;48.84;93519.66;5005122;28;20049;-77
2022/06/21 02:33:29;;;;;;;7.07;3.63;;;;;;;18.33;48.89;93537.03;4990898;28;20100;-76
2022/06/21 02:36:03;;;;;;;3.72;3.10;;;;;;;18.09;49.05;93494.47;4990586;28;20572;-76
2022/06/21 02:39:00;;;;;;;3.50;3.20;;;;;;;18.25;49.42;93524.63;4994301;28;20089;-76
2022/06/21 02:41:32;;;;;;;3.75;3.35;;;;;;;18.02;49.46;93500.53;4992305;28;20490;-75
2022/06/21 02:44:06;;;;;;;5.63;3.63;;;;;;;18.02;49.48;93495.94;4989621;28;20401;-75
2022/06/21 02:46:36;;;;;;;4.40;3.22;;;;;;;18.21;49.66;93534.59;4991321;28;20067;-76
2022/06/21 02:49:12;;;;;;;3.53;2.92;;;;;;;18.23;49.65;93532.31;4990443;28;20038;-76
2022/06/21 02:51:45;;;;;;;5.07;3.22;;;;;;;18.14;49.66;93529.88;4988760;28;20946;-75
2022/06/21 02:54:20;;;;;;;13.20;5.13;;;;;;;18.01;49.75;93510.53;4991136;28;20053;-76
2022/06/21 02:56:53;;;;;;;5.75;3.28;;;;;;;18.02;49.37;93500.53;4995042;28;20046;-76
2022/06/21 02:59:19;;;;;;;3.72;3.00;;;;;;;18.13;49.45;93514.13;4989999;28;20089;-75
2022/06/21 03:01:58;;;;;;;5.28;3.00;;;;;;;17.99;49.76;93495.91;4989468;28;20035;-76
2022/06/21 03:04:33;;;;;;;5.32;3.05;;;;;;;18.07;49.75;93507.50;4996407;28;20049;-75
2022/06/21 03:06:58;;;;;;;4.18;3.45;;;;;;;18.14;49.98;93527.19;4996958;28;20038;-75
2022/06/21 03:09:24;;;;;;;3.15;2.85;;;;;;;18.14;49.91;93518.38;4994151;28;20038;-76
2022/06/21 03:11:54;;;;;;;3.92;3.22;;;;;;;17.75;49.79;93456.75;4990728;28;20611;-75
2022/06/21 03:14:23;;;;;;;5.03;3.50;;;;;;;18.14;50.15;93523.75;4989058;28;20034;-76
2022/06/21 03:16:50;;;;;;;3.60;3.00;;;;;;;17.96;50.36;93491.25;4990312;28;20212;-75
2022/06/21 03:19:26;;;;;;;4.18;3.30;;;;;;;18.09;50.59;93516.75;4991905;28;20068;-77
2022/06/21 03:21:53;;;;;;;3.10;2.80;;;;;;;17.88;50.70;93474.22;4986812;28;20050;-76
2022/06/21 03:24:21;;;;;;;3.28;2.67;;;;;;;18.12;50.59;93501.81;4995351;28;20439;-76
2022/06/21 03:26:53;;;;;;;3.55;2.95;;;;;;;18.14;50.31;93497.59;4990592;28;20381;-76
2022/06/21 03:29:18;;;;;;;3.85;3.33;;;;;;;18.22;50.53;93509.22;4992024;28;20070;-75
2022/06/21 03:31:48;;;;;;;3.13;2.83;;;;;;;18.25;50.27;93511.16;4990478;28;20062;-76
2022/06/21 03:34:17;;;;;;;3.92;3.58;;;;;;;18.23;50.84;93500.00;4991207;28;20038;-74
2022/06/21 03:36:43;;;;;;;4.28;3.33;;;;;;;18.36;50.34;93514.75;4990152;28;20444;-75
2022/06/21 03:39:18;;;;;;;2.97;2.70;;;;;;;17.99;50.46;93455.53;4989087;28;20030;-74
2022/06/21 03:41:45;;;;;;;3.67;3.05;;;;;;;18.24;51.09;93501.53;4989033;28;20037;-76
2022/06/21 03:44:17;;;;;;;3.80;3.42;;;;;;;18.29;51.19;93493.13;4989897;28;20145;-76
2022/06/21 03:47:02;;;;;;;3.72;3.10;;;;;;;18.51;51.39;93521.84;4988951;28;20038;-76
2022/06/21 03:49:38;;;;;;;3.20;2.90;;;;;;;18.51;51.00;93523.75;4991304;28;20034;-76
2022/06/21 03:52:08;;;;;;;3.85;3.25;;;;;;;18.58;50.93;93532.66;4987507;28;20757;-76
2022/06/21 03:54:44;;;;;;;6.97;3.55;;;;;;;18.44;50.00;93500.22;4986786;28;20042;-77
2022/06/21 03:57:21;;;;;;;7.38;4.03;;;;;;;18.73;50.33;93537.09;4988330;28;20036;-76
2022/06/21 04:00:01;;;;;;;5.18;4.35;;;;;;;18.80;50.15;93537.16;4989951;28;20426;-76
2022/06/21 04:02:39;;;;;;;6.00;5.40;;;;;;;18.86;50.01;93534.91;4989096;28;20050;-77
2022/06/21 04:05:09;;;;;;;9.15;5.53;;;;;;;18.98;48.93;93536.53;4987329;28;20133;-75
2022/06/21 04:07:46;;;;;;;7.25;5.13;;;;;;;18.40;48.93;93450.94;4988067;28;20334;-75
2022/06/21 04:10:15;;;;;;;5.60;4.47;;;;;;;18.65;49.38;93472.72;4989319;28;20046;-75
2022/06/21 04:12:48;;;;;;;8.60;5.13;;;;;;;19.01;49.73;93520.41;4986170;28;20038;-75
2022/06/21 04:15:20;;;;;;;5.65;5.10;;;;;;;19.12;49.24;93523.16;4987529;28;20065;-75
2022/06/21 04:18:01;;;;;;;9.02;4.65;;;;;;;19.00;49.17;93485.75;4987856;28;20038;-75
2022/06/21 04:20:41;;;;;;;9.25;4.78;;;;;;;19.20;48.91;93519.41;4987051;28;20061;-75
2022/06/21 04:23:15;;;;;;;10.98;5.22;;;;;;;19.20;48.81;93487.03;4988517;28;20030;-75
2022/06/21 04:25:51;;;;;;;7.00;5.20;;;;;;;19.38;49.12;93512.19;4986832;28;20034;-76
2022/06/21 04:28:25;;;;;;;4.28;3.75;;;;;;;19.48;47.51;93514.22;4985864;28;20656;-76
2022/06/21 04:31:02;;;;;;;5.97;4.60;;;;;;;19.43;47.90;93492.97;4989325;28;20038;-76
2022/06/21 04:33:40;;;;;;;11.27;4.95;;;;;;;19.55;48.62;93500.00;4989920;28;20030;-76
2022/06/21 04:36:12;;;;;;;6.60;4.40;;;;;;;19.53;48.54;93500.38;4987780;28;20077;-76
2022/06/21 04:38:44;;;;;;;5.95;4.50;;;;;;;19.52;48.62;93482.66;4988296;28;20030;-75
2022/06/21 04:41:17;;;;;;;6.80;4.55;;;;;;;19.64;48.80;93495.81;4988231;28;20133;-76
2022/06/21 04:44:09;;;;;;;7.13;4.30;;;;;;;19.84;49.58;93500.94;4986706;28;20552;-77
2022/06/21 04:46:41;;;;;;;7.07;4.85;;;;;;;19.64;48.66;93489.66;4988783;28;20985;-76
2022/06/21 04:49:15;;;;;;;8.27;5.32;;;;;;;19.75;48.75;93504.72;4993104;28;20072;-76
2022/06/21 04:51:51;;;;;;;7.65;5.10;;;;;;;19.52;48.76;93500.75;4986946;28;20560;-76
2022/06/21 04:54:24;;;;;;;6.65;4.78;;;;;;;19.68;49.05;93512.03;4990482;28;20037;-76
2022/06/21 04:57:13;;;;;;;8.32;6.30;;;;;;;19.76;47.86;93508.19;4986574;28;20030;-76
2022/06/21 04:59:55;;;;;;;7.88;5.88;;;;;;;19.95;46.85;93515.22;4986265;28;20053;-76
2022/06/21 05:02:29;;;;;;;6.93;5.35;;;;;;;20.02;47.46;93517.97;4987504;28;20034;-75
2022/06/21 05:05:22;;;;;;;7.43;5.53;;;;;;;20.05;46.81;93522.59;4987669;28;20849;-76
2022/06/21 05:07:54;;;;;;;6.40;5.40;;;;;;;20.11;45.94;93518.38;4990544;28;20558;-76
2022/06/21 05:10:25;;;;;;;8.25;6.35;;;;;;;20.16;46.52;93537.72;4987145;28;20053;-75
2022/06/21 05:12:52;;;;;;;9.05;6.45;;;;;;;20.10;46.32;93519.53;4986820;28;20168;-75
2022/06/21 05:15:28;;;;;;;7.18;5.88;;;;;;;20.19;46.28;93544.28;4987295;28;20049;-76
2022/06/21 05:18:06;;;;;;;9.13;6.80;;;;;;;20.32;45.58;93548.19;4993200;28;20113;-75
2022/06/21 05:20:35;;;;;;;9.30;6.88;;;;;;;20.30;46.09;93552.44;4987228;28;20501;-76
2022/06/21 05:23:05;;;;;;;5.78;5.07;;;;;;;20.47;44.91;93544.41;4985766;28;20076;-76
2022/06/21 05:25:43;;;;;;;11.85;5.85;;;;;;;20.49;45.74;93544.78;4986292;28;20519;-76
2022/06/21 05:28:27;;;;;;;7.75;6.05;;;;;;;20.56;45.79;93544.03;4989683;28;20076;-76
2022/06/21 05:30:57;;;;;;;10.38;7.55;;;;;;;20.66;45.61;93520.88;4987047;28;20037;-76
2022/06/21 05:33:40;;;;;;;10.40;7.80;;;;;;;20.73;45.42;93542.53;4986533;28;20188;-76
2022/06/21 05:36:13;;;;;;;8.27;7.05;;;;;;;20.66;46.12;93537.09;4989019;28;20018;-75
2022/06/21 05:38:52;;;;;;;11.30;7.28;;;;;;;20.42;46.36;93489.97;4987136;28;20473;-76
2022/06/21 05:41:30;;;;;;;15.80;7.88;;;;;;;20.50;46.71;93529.34;4988003;28;20053;-76
2022/06/21 05:44:20;;;;;;;8.85;7.35;;;;;;;20.88;46.29;93528.66;4987290;28;20050;-77
2022/06/21 05:46:53;;;;;;;17.85;8.75;;;;;;;20.79;46.49;93536.34;4991586;28;20866;-76
2022/06/21 05:49:21;;;;;;;11.70;8.35;;;;;;;20.69;46.97;93537.09;4986948;28;20164;-76
2022/06/21 05:51:48;;;;;;;12.60;7.35;;;;;;;21.02;46.41;93517.13;5000521;28;20580;-75
2022/06/21 05:54:17;;;;;;;12.15;7.32;;;;;;;20.85;46.09;93507.78;5003305;28;20022;-76
2022/06/21 05:56:44;;;;;;;10.65;7.72;;;;;;;20.68;46.77;93524.00;4986170;28;20022;-75
2022/06/21 05:59:18;;;;;;;19.23;8.95;;;;;;;20.96;46.67;93529.47;4986609;28;20537;-76
2022/06/21 06:01:53;;;;;;;;;;;;;;;20.96;47.26;93529.47;4986489;28;20510;-76
2022/06/21 06:04:31;;;;;;;13.25;8.65;;;;;;;20.94;47.65;93499.31;4988242;28;20013;-76
2022/06/21 06:06:58;;;;;;;11.02;8.10;;;;;;;21.03;47.00;93491.59;4987734;28;20069;-76
2022/06/21 06:09:28;;;;;;;12.13;8.50;;;;;;;21.17;47.04;93496.25;4987124;28;20026;-76
2022/06/21 06:12:18;;;;;;;11.85;8.90;;;;;;;21.46;46.51;93525.56;4985233;28;20026;-76
2022/06/21 06:14:51;;;;;;;12.18;10.05;;;;;;;21.63;46.83;93525.97;4986982;28;20097;-74
2022/06/21 06:17:35;;;;;;;12.63;8.07;;;;;;;21.71;46.37;93513.94;4984884;28;20045;-77
2022/06/21 06:20:20;;;;;;;13.02;8.90;;;;;;;21.79;45.18;93527.09;4992705;28;20061;-76
2022/06/21 06:22:57;;;;;;;10.18;7.47;;;;;;;21.81;45.46;93551.06;4991753;28;20042;-76
2022/06/21 06:25:56;;;;;;;15.23;7.53;;;;;;;21.67;44.98;93548.38;4989995;28;20121;-76
2022/06/21 06:28:24;;;;;;;10.70;7.80;;;;;;;21.67;45.27;93545.66;4983065;28;20054;-76
2022/06/21 06:31:01;;;;;;;9.82;8.27;;;;;;;21.86;44.75;93550.66;4984410;28;20245;-76
2022/06/21 06:33:35;;;;;;;10.13;7.82;;;;;;;21.95;44.46;93542.91;4986518;28;20367;-75
2022/06/21 06:36:06;;;;;;;15.00;7.70;;;;;;;21.99;44.74;93546.38;4986670;28;20526;-76
2022/06/21 06:38:32;;;;;;;13.98;8.70;;;;;;;22.14;43.58;93552.53;5002548;28;20042;-75
2022/06/21 06:41:12;;;;;;;13.00;8.57;;;;;;;22.27;43.56;93540.91;4985552;28;20038;-76
2022/06/21 06:43:43;;;;;;;12.15;7.38;;;;;;;22.28;44.43;93547.09;4986135;28;20045;-76
2022/06/21 06:46:17;;;;;;;9.18;7.55;;;;;;;22.10;44.34;93533.56;4985959;28;20510;-76
2022/06/21 06:48:45;;;;;;;11.13;7.20;;;;;;;22.09;43.66;93521.22;4986760;28;20062;-75
2022/06/21 06:51:13;;;;;;;8.88;6.88;;;;;;;22.30;44.49;93540.09;4988924;28;20030;-76
2022/06/21 06:53:45;;;;;;;9.00;6.60;;;;;;;22.28;43.92;93526.19;4986645;28;20454;-77
2022/06/21 06:56:17;;;;;;;8.13;5.97;;;;;;;22.48;43.65;93517.59;5000740;28;20029;-76
2022/06/21 06:58:49;;;;;;;9.80;6.57;;;;;;;22.36;44.37;93531.56;4985058;28;20064;-75
2022/06/21 07:01:39;;;;;;;10.48;6.50;;;;;;;22.51;44.41;93533.03;4986353;28;20137;-76
2022/06/21 07:04:05;;;;;;;7.50;5.25;;;;;;;22.46;45.38;93500.94;4989248;28;20046;-76
2022/06/21 07:06:31;;;;;;;7.30;5.38;;;;;;;22.80;44.16;93515.44;4986381;28;20034;-77
2022/06/21 07:09:04;;;;;;;10.38;5.80;;;;;;;22.92;44.53;93512.31;4979875;28;20180;-76
2022/06/21 07:11:39;;;;;;;6.57;5.33;;;;;;;22.90;45.15;93511.91;4981289;28;20056;-76
2022/06/21 07:14:11;;;;;;;7.78;5.30;;;;;;;22.88;45.68;93508.81;4986343;28;20038;-76
2022/06/21 07:16:39;;;;;;;10.63;4.97;;;;;;;23.00;46.07;93494.03;4989273;28;20645;-77
2022/06/21 07:19:07;;;;;;;9.65;5.05;;;;;;;22.93;45.83;93505.69;4988727;28;20114;-76
2022/06/21 07:21:33;;;;;;;7.05;5.18;;;;;;;23.07;46.17;93504.84;4989384;28;20469;-76
2022/06/21 07:23:59;;;;;;;5.38;3.78;;;;;;;23.22;45.04;93494.66;4989009;28;20057;-76
2022/06/21 07:26:34;;;;;;;3.60;3.13;;;;;;;23.57;42.31;93505.19;4987425;28;20137;-76
2022/06/21 07:29:23;;;;;;;3.85;3.20;;;;;;;23.78;42.34;93526.69;4986150;28;20670;-77
2022/06/21 07:31:54;;;;;;;3.80;3.40;;;;;;;23.83;40.90;93523.56;4989109;28;20058;-76
2022/06/21 07:34:38;;;;;;;4.63;3.42;;;;;;;23.84;40.60;93525.09;4987635;28;20585;-76
2022/06/21 07:37:14;;;;;;;4.00;3.60;;;;;;;23.97;40.00;93534.25;4999419;28;20057;-76
2022/06/21 07:39:46;;;;;;;6.32;4.82;;;;;;;23.89;40.20;93527.38;4987261;28;20128;-76
2022/06/21 07:42:21;;;;;;;5.32;4.35;;;;;;;23.79;41.59;93527.47;4989403;28;20573;-76
2022/06/21 07:45:03;;;;;;;4.53;4.05;;;;;;;23.78;41.25;93540.28;4991291;28;20057;-77
2022/06/21 07:47:46;;;;;;;3.97;3.58;;;;;;;23.81;41.39;93535.97;4987868;28;20111;-76
2022/06/21 07:50:16;;;;;;;4.70;4.20;;;;;;;23.70;41.39;93533.38;4987444;28;20045;-76
2022/06/21 07:52:50;;;;;;;4.90;4.40;;;;;;;23.40;41.71;93541.38;4992567;28;20748;-76
2022/06/21 07:55:48;;;;;;;5.90;4.07;;;;;;;23.54;42.42;93552.91;4986363;28;20084;-75
2022/06/21 07:58:35;;;;;;;6.43;4.40;;;;;;;23.50;43.34;93540.56;4982420;28;20311;-76
2022/06/21 08:06:55;;;;;;;10.80;4.55;;;;;;;23.66;42.19;93562.50;4985610;28;20088;-75
2022/06/21 08:09:42;;;;;;;6.97;4.40;;;;;;;23.74;42.82;93574.84;4985710;28;20473;-76
2022/06/21 08:12:11;;;;;;;5.22;4.55;;;;;;;23.69;43.15;93579.94;4985263;28;20034;-75
2022/06/21 08:14:36;;;;;;;5.30;4.57;;;;;;;23.64;43.34;93573.00;4986371;28;20034;-77
2022/06/21 08:17:12;;;;;;;6.25;4.65;;;;;;;23.75;44.03;93581.06;4999743;28;20046;-77
2022/06/21 08:19:54;;;;;;;10.00;5.40;;;;;;;23.62;43.84;93567.19;4986054;28;20034;-76
2022/06/21 08:22:26;;;;;;;6.38;5.28;;;;;;;23.82;44.59;93592.59;4986421;28;20040;-76
2022/06/21 08:25:20;;;;;;;7.38;5.80;;;;;;;23.66;44.46;93548.91;4988399;28;20054;-76
2022/06/21 08:27:51;;;;;;;10.10;5.72;;;;;;;23.80;44.35;93577.91;4985808;28;20535;-76
2022/06/21 08:30:41;;;;;;;8.57;5.60;;;;;;;23.80;45.47;93592.25;4986865;28;20026;-77
2022/06/21 08:33:13;;;;;;;7.97;5.10;;;;;;;23.82;44.80;93594.53;4987406;28;20046;-76
2022/06/21 08:35:47;;;;;;;6.10;5.10;;;;;;;23.84;45.37;93584.06;4988839;28;20041;-77
2022/06/21 08:38:32;;;;;;;6.97;6.13;;;;;;;23.68;44.82;93591.97;4986657;28;20163;-76
2022/06/21 08:41:52;;;;;;;9.25;6.30;;;;;;;23.75;44.73;93605.47;4984790;28;20633;-77
2022/06/21 08:44:23;;;;;;;7.53;6.13;;;;;;;23.61;44.70;93598.25;4998614;28;20065;-76
2022/06/21 08:47:23;;;;;;;11.30;7.93;;;;;;;23.43;45.18;93590.19;4983927;28;20072;-76
2022/06/21 08:50:19;;;;;;;8.77;6.75;;;;;;;23.37;45.95;93585.59;4984574;28;20035;-75
2022/06/21 08:53:04;;;;;;;7.05;6.22;;;;;;;23.36;46.18;93592.19;4991951;28;20691;-76
2022/06/21 08:55:51;;;;;;;8.97;6.47;;;;;;;23.34;47.67;93583.69;4985087;28;20034;-76
2022/06/21 08:58:28;;;;;;;9.30;6.57;;;;;;;23.46;47.10;93573.13;4984777;28;21029;-76
2022/06/21 09:01:21;;;;;;;6.70;5.90;;;;;;;23.24;47.31;93541.13;4983110;28;20043;-76
2022/06/21 09:03:46;;;;;;;7.20;6.32;;;;;;;23.63;47.79;93576.88;4983135;28;20034;-76
2022/06/21 09:06:27;;;;;;;7.90;6.10;;;;;;;23.66;46.46;93546.19;4985531;28;20029;-76
2022/06/21 09:08:55;;;;;;;7.82;5.65;;;;;;;23.74;47.34;93563.22;4988697;28;20515;-76
2022/06/21 09:11:38;;;;;;;14.30;5.50;;;;;;;23.73;46.41;93562.44;4985840;28;20096;-77
2022/06/21 09:14:22;;;;;;;11.48;6.40;;;;;;;23.73;47.08;93557.00;4985135;28;21015;-76
2022/06/21 09:17:04;;;;;;;9.00;6.68;;;;;;;23.52;46.91;93506.41;4984499;28;20309;-74
2022/06/21 09:19:42;;;;;;;8.02;6.85;;;;;;;23.89;47.36;93549.09;4987643;28;20724;-76
2022/06/21 09:22:07;;;;;;;6.95;6.25;;;;;;;23.92;47.71;93536.66;4985582;28;20034;-75
2022/06/21 09:24:41;;;;;;;7.00;6.30;;;;;;;24.03;46.74;93548.16;4991247;28;20030;-76
2022/06/21 09:27:18;;;;;;;9.07;6.57;;;;;;;24.02;46.82;93541.19;4988068;28;20033;-75
2022/06/21 09:29:46;;;;;;;13.52;7.95;;;;;;;24.16;47.47;93541.06;4992478;28;20034;-74
2022/06/21 09:32:14;;;;;;;7.43;6.20;;;;;;;24.13;46.64;93544.59;4986507;28;20042;-73
2022/06/21 09:35:18;;;;;;;11.43;6.65;;;;;;;24.14;46.86;93546.16;4988198;28;20445;-76
2022/06/21 09:38:06;;;;;;;7.15;6.50;;;;;;;24.17;47.79;93536.41;4975955;28;20584;-73
2022/06/21 09:40:52;;;;;;;6.80;6.20;;;;;;;24.24;47.07;93542.53;4979126;28;20046;-76
2022/06/21 09:43:32;;;;;;;7.47;6.63;;;;;;;24.34;47.78;93535.44;4987824;28;20644;-76
2022/06/21 09:46:00;;;;;;;9.82;6.70;;;;;;;24.39;45.99;93540.41;4979352;28;20053;-76
2022/06/21 09:48:28;;;;;;;6.45;5.85;;;;;;;24.46;46.05;93537.59;4979742;28;20100;-75
2022/06/21 09:51:12;;;;;;;7.50;6.50;;;;;;;24.40;45.82;93522.91;4983165;28;20034;-75
2022/06/21 09:54:13;;;;;;;9.82;7.22;;;;;;;24.51;46.31;93533.66;4984529;28;20080;-74
2022/06/21 09:57:03;;;;;;;12.32;6.85;;;;;;;24.46;46.92;93532.16;4973253;28;20043;-75
2022/06/21 09:59:41;;;;;;;8.30;6.93;;;;;;;24.31;45.95;93531.56;4989190;28;20040;-75
2022/06/21 10:02:24;;;;;;;8.90;6.45;;;;;;;24.32;46.60;93516.81;4994037;28;20142;-74
2022/06/21 10:04:54;;;;;;;9.77;7.45;;;;;;;24.20;46.91;93511.16;4987442;28;20062;-74
2022/06/21 10:07:37;;;;;;;8.50;6.95;;;;;;;24.37;46.86;93529.19;4988082;28;20545;-74
2022/06/21 10:10:18;;;;;;;7.90;7.10;;;;;;;24.46;46.51;93532.16;4991000;28;20134;-75
2022/06/21 10:13:19;;;;;;;8.98;7.28;;;;;;;24.47;47.04;93524.78;4984641;28;20040;-74
2022/06/21 10:16:08;;;;;;;11.13;6.47;;;;;;;24.54;46.57;93517.28;4973148;28;20532;-75
2022/06/21 10:18:34;;;;;;;9.15;7.90;;;;;;;24.54;46.05;93525.44;4988233;28;20026;-74
2022/06/21 10:21:30;;;;;;;7.78;6.82;;;;;;;24.66;44.96;93514.03;4988369;28;20021;-75
2022/06/21 10:24:07;;;;;;;9.63;6.85;;;;;;;24.74;45.03;93514.72;4987520;28;20180;-75
2022/06/21 10:26:46;;;;;;;7.57;6.75;;;;;;;24.69;46.36;93512.44;4987026;28;20035;-74
2022/06/21 10:29:26;;;;;;;9.13;7.75;;;;;;;24.65;45.18;93512.50;4987069;28;20042;-74
2022/06/21 10:31:57;;;;;;;8.93;6.43;;;;;;;24.72;43.83;93528.75;4987089;28;20892;-74
2022/06/21 10:34:30;;;;;;;8.95;7.03;;;;;;;24.63;43.70;93504.00;4982379;28;20038;-75
2022/06/21 10:36:55;;;;;;;7.28;6.57;;;;;;;24.80;44.00;93524.75;4983006;28;20041;-74
2022/06/21 10:39:47;;;;;;;6.85;6.25;;;;;;;24.71;43.43;93519.03;4986536;28;20382;-74
2022/06/21 10:42:46;;;;;;;7.32;6.05;;;;;;;24.58;43.80;93523.47;4997878;28;20612;-75
2022/06/21 10:45:32;;;;;;;15.93;7.15;;;;;;;24.60;43.93;93521.09;4983872;28;20124;-75
2022/06/21 10:48:52;;;;;;;9.50;7.72;;;;;;;24.64;44.34;93510.94;4984299;28;20044;-75
2022/06/21 10:51:53;;;;;;;7.68;6.13;;;;;;;24.58;43.78;93511.81;4931796;28;20038;-74
2022/06/21 10:54:57;;;;;;;9.90;6.60;;;;;;;24.50;44.52;93502.22;4988653;28;20049;-75
2022/06/21 10:57:32;;;;;;;7.55;6.85;;;;;;;24.71;44.68;93527.19;5002736;28;20034;-74
2022/06/21 11:02:56;;;;;;;8.80;6.40;;;;;;;24.80;44.83;93518.53;4987060;28;19924;-74
2022/06/21 11:05:29;;;;;;;8.18;6.97;;;;;;;24.88;44.80;93519.97;4985976;28;20080;-75
2022/06/21 11:08:22;;;;;;;8.07;6.53;;;;;;;24.90;45.25;93535.88;4954512;28;20053;-74
2022/06/21 11:10:51;;;;;;;8.00;6.88;;;;;;;24.87;45.53;93525.81;4987445;28;20454;-75
2022/06/21 11:13:20;;;;;;;8.48;7.05;;;;;;;24.97;44.58;93533.84;4988465;28;20115;-76
2022/06/21 11:16:22;;;;;;;8.48;7.43;;;;;;;24.87;43.54;93528.56;4985743;28;20492;-75
2022/06/21 11:19:13;;;;;;;8.40;7.45;;;;;;;24.97;44.39;93527.63;4987679;28;20301;-75
2022/06/21 11:22:00;;;;;;;9.75;7.35;;;;;;;25.00;45.29;93538.44;4987690;28;20728;-75
2022/06/21 11:24:57;;;;;;;7.85;6.82;;;;;;;25.05;45.30;93546.16;4986024;28;20334;-77
2022/06/21 11:27:55;;;;;;;7.93;7.05;;;;;;;25.07;46.17;93527.47;4986623;28;20121;-76
2022/06/21 11:31:00;;;;;;;8.82;6.35;;;;;;;25.27;44.97;93546.59;4983209;28;20493;-77
2022/06/21 11:33:49;;;;;;;8.33;7.03;;;;;;;25.24;45.46;93537.28;4978865;28;20129;-77
2022/06/21 11:36:15;;;;;;;8.35;7.25;;;;;;;25.28;45.64;93537.22;4989887;28;20038;-77
2022/06/21 11:38:51;;;;;;;7.45;6.55;;;;;;;25.26;44.75;93520.56;4987392;28;20045;-77
2022/06/21 11:42:06;;;;;;;10.80;7.38;;;;;;;25.23;44.56;93518.66;4987633;28;20038;-77
2022/06/21 11:44:47;;;;;;;9.35;8.38;;;;;;;25.46;44.54;93537.00;4992541;28;20335;-76
2022/06/21 11:47:27;;;;;;;8.50;7.03;;;;;;;25.23;44.39;93521.38;4986792;28;20177;-78
2022/06/21 11:50:11;;;;;;;7.70;6.97;;;;;;;25.05;45.23;93488.25;4989110;28;20037;-77
2022/06/21 11:52:58;;;;;;;7.35;6.65;;;;;;;25.50;44.85;93524.88;4987350;28;20432;-77
2022/06/21 11:55:44;;;;;;;7.15;6.45;;;;;;;25.56;43.80;93519.72;4986364;28;20045;-77
2022/06/21 11:58:15;;;;;;;8.48;7.63;;;;;;;25.59;43.96;93538.72;4986752;28;20522;-76
2022/06/21 12:00:47;;;;;;;10.27;6.93;;;;;;;25.63;44.28;93531.25;4986416;28;20414;-77
2022/06/21 12:03:31;;;;;;;6.82;6.18;;;;;;;25.74;43.32;93516.66;4992877;28;20430;-78
2022/06/21 12:06:03;;;;;;;7.50;6.43;;;;;;;25.60;43.22;93504.84;4987934;28;20054;-76
2022/06/21 12:08:39;;;;;;;8.88;7.38;;;;;;;25.64;44.16;93512.94;4986687;28;20097;-75
2022/06/21 12:11:23;;;;;;;7.63;6.18;;;;;;;25.81;43.57;93519.28;4985612;28;20042;-77
2022/06/21 12:14:08;;;;;;;7.80;6.32;;;;;;;25.69;42.67;93496.91;4987131;28;20441;-75
2022/06/21 12:16:36;;;;;;;7.55;6.53;;;;;;;25.84;42.34;93521.16;4989110;28;20100;-76
2022/06/21 12:19:12;;;;;;;8.48;6.43;;;;;;;25.80;42.59;93499.44;4984696;28;20127;-75
2022/06/21 12:21:46;;;;;;;8.82;6.55;;;;;;;25.98;42.20;93512.75;4987127;28;20136;-75
2022/06/21 12:24:20;;;;;;;7.95;6.57;;;;;;;25.99;42.68;93503.41;4991022;28;20100;-76